BAW27R EGYP-EGYP
Flight info
| Callsign | BAW27R |
|---|---|
| Flight time | 0h 6m |
| Altitude | 35000 |
| Route | 514519S0585057W 515801S0590649W 523200S0585025W DCT OTAGI UT103 VURGI/N0465F370 UT103 MBI/N0460F360 DCT 641434S0572114W 650530S0611432W 651601S0642025W 642427S0612226W/N0459F380 633444S0584136W 610651S0543421W DCT 515312S0581529W DCT 515033S0581837W |
| Aircraft | A20N/M-SDE2E3FGHIRWXY/LB1 |
Departure
| Time | 2026-05-04 12:09 |
|---|---|
| Airport | Mount Pleasant Airport / RAF Mount Pleasant (EGYP) |
Arrival
| Time | 2026-05-04 12:15 |
|---|---|
| Airport | Mount Pleasant Airport / RAF Mount Pleasant (EGYP) |
| Time | Latitude | Longitude | Altitude | Speed | Heading |
|---|---|---|---|---|---|
| 2026-05-04 12:04 | -51.82064 | -58.47090 | 225 ft | 0 kts | 105° |
| 2026-05-04 12:07 | -51.82409 | -58.44889 | 232 ft | 384 kts | 105° |
| 2026-05-04 12:08 | -51.82408 | -58.44902 | 232 ft | 0 kts | 56° |
| 2026-05-04 12:08 | -51.82404 | -58.44907 | 231 ft | 0 kts | 56° |
| 2026-05-04 12:09 | -51.81946 | -58.43825 | 321 ft | 257 kts | 57° |
| 2026-05-04 12:09 | -51.80905 | -58.41359 | 632 ft | 267 kts | 57° |
| 2026-05-04 12:09 | -51.79835 | -58.38806 | 1257 ft | 287 kts | 58° |
| 2026-05-04 12:09 | -51.78655 | -58.35959 | 1368 ft | 330 kts | 58° |
| 2026-05-04 12:10 | -51.77301 | -58.32657 | 1849 ft | 357 kts | 58° |
| 2026-05-04 12:10 | -51.75947 | -58.29348 | 3215 ft | 354 kts | 57° |
| 2026-05-04 12:10 | -51.74563 | -58.25958 | 4317 ft | 365 kts | 58° |
| 2026-05-04 12:10 | -51.73184 | -58.22550 | 5589 ft | 370 kts | 57° |
| 2026-05-04 12:11 | -51.71718 | -58.19072 | 6654 ft | 380 kts | 55° |
| 2026-05-04 12:11 | -51.70101 | -58.15386 | 6912 ft | 393 kts | 56° |
| 2026-05-04 12:11 | -51.68603 | -58.11881 | 7601 ft | 403 kts | 55° |
| 2026-05-04 12:11 | -51.66821 | -58.07720 | 5302 ft | 490 kts | 56° |
| 2026-05-04 12:12 | -51.64918 | -58.03292 | 6993 ft | 409 kts | 55° |
| 2026-05-04 12:12 | -51.63436 | -57.99864 | 11043 ft | 382 kts | 54° |
| 2026-05-04 12:12 | -51.61767 | -57.96033 | 8640 ft | 463 kts | 54° |
| 2026-05-04 12:12 | -51.59772 | -57.91540 | 6933 ft | 520 kts | 54° |
| 2026-05-04 12:13 | -51.57697 | -57.86915 | 8301 ft | 468 kts | 53° |
| 2026-05-04 12:14 | -51.47036 | -57.74906 | 17683 ft | 318 kts | 214° |
| 2026-05-04 12:15 | -51.48942 | -57.75214 | 21690 ft | 254 kts | 155° |
| 2026-05-04 12:15 | -51.82064 | -58.47090 | 224 ft | 7 kts | 105° |
| 2026-05-04 12:19 | -51.82065 | -58.47088 | 223 ft | 1 kts | 105° |
| 2026-05-04 12:20 | -51.82068 | -58.47070 | 223 ft | 3 kts | 108° |
| 2026-05-04 12:20 | -51.82079 | -58.47033 | 224 ft | 4 kts | 122° |
| 2026-05-04 12:20 | -51.82092 | -58.47020 | 223 ft | 2 kts | 162° |
| 2026-05-04 12:20 | -51.82119 | -58.47023 | 223 ft | 5 kts | 199° |
| 2026-05-04 12:21 | -51.82144 | -58.47062 | 223 ft | 6 kts | 240° |
| 2026-05-04 12:21 | -51.82147 | -58.47127 | 223 ft | 6 kts | 289° |
| 2026-05-04 12:21 | -51.82111 | -58.47175 | 223 ft | 8 kts | 339° |
| 2026-05-04 12:21 | -51.82056 | -58.47190 | 222 ft | 9 kts | 347° |
| 2026-05-04 12:22 | -51.82001 | -58.47242 | 222 ft | 10 kts | 306° |
| 2026-05-04 12:22 | -51.81975 | -58.47349 | 223 ft | 11 kts | 285° |
| 2026-05-04 12:22 | -51.81949 | -58.47474 | 221 ft | 12 kts | 301° |
| 2026-05-04 12:22 | -51.81873 | -58.47526 | 222 ft | 13 kts | 7° |
| 2026-05-04 12:23 | -51.81798 | -58.47460 | 221 ft | 11 kts | 64° |
| 2026-05-04 12:23 | -51.81804 | -58.47354 | 222 ft | 9 kts | 105° |
| 2026-05-04 12:23 | -51.81821 | -58.47250 | 225 ft | 10 kts | 105° |
| 2026-05-04 12:23 | -51.81840 | -58.47139 | 224 ft | 4 kts | 105° |
| 2026-05-04 12:24 | -51.81840 | -58.47138 | 224 ft | 0 kts | 105° |
| 2026-05-04 12:24 | -51.81850 | -58.47080 | 226 ft | 32 kts | 105° |
| 2026-05-04 12:25 | -51.81998 | -58.46207 | 224 ft | 129 kts | 105° |
| 2026-05-04 12:25 | -51.82320 | -58.44400 | 371 ft | 191 kts | 105° |
| 2026-05-04 12:25 | -51.82683 | -58.42258 | 1297 ft | 208 kts | 106° |
| 2026-05-04 12:25 | -51.83076 | -58.39816 | 1905 ft | 246 kts | 105° |
| 2026-05-04 12:26 | -51.83536 | -58.36899 | 2151 ft | 279 kts | 105° |
| 2026-05-04 12:26 | -51.83986 | -58.33981 | 2160 ft | 258 kts | 105° |
| 2026-05-04 12:26 | -51.84405 | -58.31247 | 2155 ft | 240 kts | 105° |
| 2026-05-04 12:26 | -51.84796 | -58.28721 | 2197 ft | 224 kts | 105° |
| 2026-05-04 12:27 | -51.85161 | -58.26332 | 2836 ft | 220 kts | 105° |
| 2026-05-04 12:27 | -51.85502 | -58.24035 | 3605 ft | 197 kts | 105° |
| 2026-05-04 12:27 | -51.85812 | -58.21932 | 4042 ft | 190 kts | 105° |
| 2026-05-04 12:27 | -51.86119 | -58.19858 | 4156 ft | 189 kts | 105° |
| 2026-05-04 12:28 | -51.86429 | -58.17784 | 4157 ft | 190 kts | 105° |
| 2026-05-04 12:28 | -51.86739 | -58.15702 | 4170 ft | 190 kts | 105° |
| 2026-05-04 12:28 | -51.87046 | -58.13620 | 4160 ft | 190 kts | 105° |
| 2026-05-04 12:28 | -51.87352 | -58.11562 | 4161 ft | 190 kts | 104° |
| 2026-05-04 12:29 | -51.87668 | -58.09473 | 4157 ft | 190 kts | 105° |
| 2026-05-04 12:29 | -51.87984 | -58.07384 | 4156 ft | 190 kts | 106° |
| 2026-05-04 12:29 | -51.88292 | -58.05323 | 4159 ft | 190 kts | 105° |
| 2026-05-04 12:29 | -51.88598 | -58.03238 | 4164 ft | 190 kts | 104° |
| 2026-05-04 12:30 | -51.88907 | -58.01149 | 4153 ft | 190 kts | 105° |
| 2026-05-04 12:30 | -51.89216 | -57.99090 | 4160 ft | 190 kts | 105° |
| 2026-05-04 12:30 | -51.89531 | -57.96995 | 4158 ft | 190 kts | 105° |
| 2026-05-04 12:30 | -51.89837 | -57.94932 | 4151 ft | 190 kts | 105° |
| 2026-05-04 12:31 | -51.90140 | -57.92844 | 4154 ft | 190 kts | 104° |
| 2026-05-04 12:31 | -51.90444 | -57.90779 | 4145 ft | 190 kts | 105° |
| 2026-05-04 12:31 | -51.90753 | -57.88699 | 4152 ft | 187 kts | 105° |
| 2026-05-04 12:31 | -51.91051 | -57.86679 | 4144 ft | 185 kts | 104° |
| 2026-05-04 12:32 | -51.91349 | -57.84648 | 4149 ft | 185 kts | 105° |
| 2026-05-04 12:32 | -51.91935 | -57.80591 | 4155 ft | 185 kts | 105° |
| 2026-05-04 12:32 | -51.92238 | -57.78565 | 4159 ft | 185 kts | 104° |
| 2026-05-04 12:33 | -51.92533 | -57.76559 | 4149 ft | 185 kts | 104° |
| 2026-05-04 12:33 | -51.92829 | -57.74520 | 4154 ft | 185 kts | 105° |
| 2026-05-04 12:33 | -51.93125 | -57.72467 | 4154 ft | 188 kts | 105° |
| 2026-05-04 12:33 | -51.93422 | -57.70423 | 4164 ft | 189 kts | 104° |
| 2026-05-04 12:34 | -51.93731 | -57.68338 | 4157 ft | 189 kts | 105° |
| 2026-05-04 12:34 | -51.94035 | -57.66259 | 4157 ft | 189 kts | 104° |
| 2026-05-04 12:34 | -51.94331 | -57.64195 | 4154 ft | 189 kts | 105° |
| 2026-05-04 12:34 | -51.94636 | -57.62081 | 4167 ft | 195 kts | 106° |
| 2026-05-04 12:35 | -51.94953 | -57.59917 | 4157 ft | 198 kts | 105° |
| 2026-05-04 12:35 | -51.95268 | -57.57786 | 4147 ft | 190 kts | 105° |
| 2026-05-04 12:35 | -51.95563 | -57.55744 | 4161 ft | 188 kts | 104° |
| 2026-05-04 12:35 | -51.95854 | -57.53683 | 4164 ft | 187 kts | 105° |
| 2026-05-04 12:36 | -51.96153 | -57.51665 | 4166 ft | 189 kts | 105° |
| 2026-05-04 12:36 | -51.96466 | -57.49574 | 4167 ft | 190 kts | 105° |
| 2026-05-04 12:36 | -51.96772 | -57.47502 | 4171 ft | 191 kts | 105° |
| 2026-05-04 12:36 | -51.97077 | -57.45403 | 4165 ft | 190 kts | 105° |
| 2026-05-04 12:37 | -51.97376 | -57.43328 | 4171 ft | 190 kts | 104° |
| 2026-05-04 12:37 | -51.97679 | -57.41235 | 4174 ft | 190 kts | 104° |
| 2026-05-04 12:37 | -51.97985 | -57.39138 | 4175 ft | 190 kts | 105° |
| 2026-05-04 12:37 | -51.98291 | -57.37047 | 4171 ft | 190 kts | 105° |
| 2026-05-04 12:38 | -51.98593 | -57.34952 | 4166 ft | 191 kts | 105° |
| 2026-05-04 12:38 | -51.98890 | -57.32853 | 4174 ft | 191 kts | 104° |
| 2026-05-04 12:38 | -51.99190 | -57.30771 | 4174 ft | 192 kts | 104° |
| 2026-05-04 12:38 | -51.99499 | -57.28649 | 4170 ft | 192 kts | 104° |
| 2026-05-04 12:39 | -51.99806 | -57.26539 | 4167 ft | 192 kts | 104° |
| 2026-05-04 12:39 | -52.00107 | -57.24425 | 4164 ft | 193 kts | 105° |
| 2026-05-04 12:39 | -52.00406 | -57.22287 | 4165 ft | 195 kts | 105° |
| 2026-05-04 12:39 | -52.00709 | -57.20154 | 4162 ft | 192 kts | 104° |
| 2026-05-04 12:40 | -52.01015 | -57.18047 | 4170 ft | 191 kts | 104° |
| 2026-05-04 12:40 | -52.01311 | -57.15987 | 4170 ft | 188 kts | 105° |
| 2026-05-04 12:40 | -52.01607 | -57.13911 | 4174 ft | 188 kts | 105° |
| 2026-05-04 12:40 | -52.01897 | -57.11859 | 4176 ft | 187 kts | 105° |
| 2026-05-04 12:41 | -52.02191 | -57.09797 | 4171 ft | 187 kts | 104° |
| 2026-05-04 12:41 | -52.02491 | -57.07731 | 4176 ft | 187 kts | 104° |
| 2026-05-04 12:41 | -52.02784 | -57.05670 | 4172 ft | 187 kts | 105° |
| 2026-05-04 12:41 | -52.03066 | -57.03631 | 4177 ft | 187 kts | 105° |
| 2026-05-04 12:42 | -52.03360 | -57.01532 | 4174 ft | 191 kts | 104° |
| 2026-05-04 12:42 | -52.03651 | -56.99457 | 4171 ft | 189 kts | 104° |
| 2026-05-04 12:42 | -52.03949 | -56.97354 | 4167 ft | 188 kts | 105° |
| 2026-05-04 12:42 | -52.04237 | -56.95310 | 4170 ft | 188 kts | 105° |
| 2026-05-04 12:43 | -52.04525 | -56.93219 | 4172 ft | 188 kts | 103° |
| 2026-05-04 12:43 | -52.04814 | -56.91146 | 4171 ft | 186 kts | 104° |
| 2026-05-04 12:43 | -52.05095 | -56.89139 | 4167 ft | 184 kts | 105° |
| 2026-05-04 12:43 | -52.05379 | -56.87069 | 4181 ft | 189 kts | 105° |
| 2026-05-04 12:44 | -52.05656 | -56.84985 | 4181 ft | 191 kts | 104° |
| 2026-05-04 12:44 | -52.05950 | -56.82863 | 4173 ft | 192 kts | 104° |
| 2026-05-04 12:44 | -52.06257 | -56.80754 | 4186 ft | 191 kts | 105° |
| 2026-05-04 12:44 | -52.06570 | -56.78655 | 4276 ft | 190 kts | 105° |
| 2026-05-04 12:45 | -52.06863 | -56.76576 | 4170 ft | 189 kts | 104° |
| 2026-05-04 12:45 | -52.07162 | -56.74503 | 4170 ft | 188 kts | 107° |
| 2026-05-04 12:45 | -52.07498 | -56.72448 | 4180 ft | 187 kts | 107° |
| 2026-05-04 12:45 | -52.07836 | -56.70420 | 4169 ft | 187 kts | 106° |
| 2026-05-04 12:46 | -52.08150 | -56.68354 | 4181 ft | 187 kts | 105° |
| 2026-05-04 12:46 | -52.08450 | -56.66306 | 4179 ft | 188 kts | 103° |
| 2026-05-04 12:46 | -52.08691 | -56.64204 | 4182 ft | 188 kts | 102° |
| 2026-05-04 12:46 | -52.08930 | -56.62123 | 4181 ft | 189 kts | 105° |
| 2026-05-04 12:47 | -52.09282 | -56.60061 | 4181 ft | 189 kts | 109° |
| 2026-05-04 12:47 | -52.09675 | -56.58005 | 4181 ft | 190 kts | 109° |
| 2026-05-04 12:47 | -52.10064 | -56.55979 | 4177 ft | 190 kts | 109° |
| 2026-05-04 12:47 | -52.10460 | -56.53925 | 4174 ft | 190 kts | 110° |
| 2026-05-04 12:48 | -52.10828 | -56.51854 | 4179 ft | 190 kts | 105° |
| 2026-05-04 12:48 | -52.11063 | -56.49731 | 4176 ft | 191 kts | 96° |
| 2026-05-04 12:48 | -52.11004 | -56.47574 | 4170 ft | 192 kts | 88° |
| 2026-05-04 12:48 | -52.11181 | -56.45456 | 4178 ft | 188 kts | 110° |
| 2026-05-04 12:49 | -52.11647 | -56.43457 | 4177 ft | 189 kts | 115° |
| 2026-05-04 12:49 | -52.12090 | -56.41449 | 4182 ft | 193 kts | 109° |
| 2026-05-04 12:49 | -52.12450 | -56.39290 | 4189 ft | 201 kts | 107° |
| 2026-05-04 12:49 | -52.12803 | -56.37075 | 4174 ft | 199 kts | 107° |
| 2026-05-04 12:50 | -52.13133 | -56.34974 | 4168 ft | 189 kts | 107° |
| 2026-05-04 12:50 | -52.13451 | -56.32917 | 4172 ft | 188 kts | 106° |
| 2026-05-04 12:50 | -52.13772 | -56.30846 | 4184 ft | 188 kts | 106° |
| 2026-05-04 12:50 | -52.14096 | -56.28769 | 4178 ft | 188 kts | 107° |
| 2026-05-04 12:51 | -52.14411 | -56.26728 | 4185 ft | 189 kts | 107° |
| 2026-05-04 12:51 | -52.14730 | -56.24635 | 4185 ft | 190 kts | 106° |
| 2026-05-04 12:51 | -52.15050 | -56.22531 | 4177 ft | 190 kts | 106° |
| 2026-05-04 12:51 | -52.15368 | -56.20453 | 4172 ft | 190 kts | 106° |
| 2026-05-04 12:52 | -52.15689 | -56.18357 | 4148 ft | 190 kts | 106° |
| 2026-05-04 12:52 | -52.16014 | -56.16263 | 3906 ft | 191 kts | 107° |
| 2026-05-04 12:52 | -52.16339 | -56.14164 | 3511 ft | 198 kts | 107° |
| 2026-05-04 12:52 | -52.16704 | -56.11881 | 2817 ft | 219 kts | 105° |
| 2026-05-04 12:53 | -52.17145 | -56.09356 | 1861 ft | 245 kts | 106° |
| 2026-05-04 12:53 | -52.17643 | -56.06564 | 804 ft | 263 kts | 106° |
| 2026-05-04 12:53 | -52.18151 | -56.03701 | 12 ft | 252 kts | 109° |
| 2026-05-04 12:53 | -52.18656 | -56.02238 | 8 ft | 36 kts | 202° |
| 2026-05-04 12:54 | -52.18678 | -56.02216 | 8 ft | 0 kts | 180° |
| 2026-05-04 12:54 | -52.19529 | -56.01580 | 15 ft | 387 kts | 28° |
| 2026-05-04 12:54 | -52.19707 | -56.01104 | 12 ft | 0 kts | 28° |
| 2026-05-04 12:54 | -52.19889 | -56.00951 | 12 ft | 0 kts | 28° |
| 2026-05-04 12:55 | -52.19870 | -56.00925 | 86 ft | 0 kts | 28° |
| 2026-05-04 12:55 | -52.19864 | -56.00902 | 12 ft | 0 kts | 33° |
| 2026-05-04 12:55 | -52.19660 | -56.00675 | 1704 ft | 0 kts | 43° |
| 2026-05-04 12:55 | -52.19766 | -56.00887 | 230 ft | 547 kts | 299° |
| 2026-05-04 12:56 | -52.19559 | -56.00746 | 289 ft | 0 kts | 289° |
| 2026-05-04 12:56 | -52.19610 | -56.00606 | 45 ft | 0 kts | 35° |
| 2026-05-04 12:56 | -52.19660 | -56.00803 | 112 ft | 0 kts | 34° |
| 2026-05-04 12:56 | -52.19626 | -56.00769 | 112 ft | 0 kts | 105° |
| 2026-05-04 12:57 | -52.20361 | -55.97960 | 305 ft | 0 kts | 105° |
| 2026-05-04 12:57 | -52.20428 | -55.97996 | 12 ft | 384 kts | 141° |
| 2026-05-04 12:57 | -52.20433 | -55.97990 | 12 ft | 0 kts | 141° |
| 2026-05-04 12:57 | -52.20472 | -55.97963 | 21 ft | 0 kts | 184° |
| 2026-05-04 12:58 | -52.20219 | -55.97892 | 24 ft | 392 kts | 18° |
| 2026-05-04 12:58 | -52.20201 | -55.97897 | 88 ft | 0 kts | 204° |
| 2026-05-04 12:58 | -52.20252 | -55.97923 | 89 ft | 0 kts | 217° |
| 2026-05-04 12:58 | -52.19733 | -55.97647 | 10 ft | 11 kts | 205° |
| 2026-05-04 12:59 | -52.19791 | -55.97692 | 68 ft | 0 kts | 205° |
| 2026-05-04 12:59 | -52.19889 | -55.97763 | 10 ft | 11 kts | 203° |
| 2026-05-04 12:59 | -52.19962 | -55.97815 | 10 ft | 11 kts | 203° |
| 2026-05-04 12:59 | -52.20010 | -55.97849 | 11 ft | 11 kts | 203° |
| 2026-05-04 13:00 | -52.20107 | -55.97917 | 10 ft | 11 kts | 203° |
| 2026-05-04 13:00 | -52.20180 | -55.97968 | 10 ft | 11 kts | 203° |
| 2026-05-04 13:00 | -52.19774 | -55.97697 | 12 ft | 0 kts | 21° |
| 2026-05-04 13:00 | -52.19727 | -55.97649 | 19 ft | 0 kts | 21° |
| 2026-05-04 13:01 | -52.19762 | -55.97664 | 48 ft | 0 kts | 8° |
| 2026-05-04 13:01 | -52.19856 | -55.97643 | 48 ft | 0 kts | 8° |
| 2026-05-04 13:01 | -52.19815 | -55.97827 | 50 ft | 0 kts | 8° |
| 2026-05-04 13:01 | -52.19859 | -55.97891 | 48 ft | 0 kts | 8° |
| 2026-05-04 13:02 | -52.19959 | -55.97973 | 50 ft | 412 kts | 8° |
| 2026-05-04 13:02 | -52.19837 | -55.97989 | 35 ft | 567 kts | 8° |
| 2026-05-04 13:02 | -52.19908 | -55.97596 | 35 ft | 401 kts | 8° |
| 2026-05-04 13:02 | -52.19837 | -55.97702 | 38 ft | 0 kts | 8° |
| 2026-05-04 13:03 | -52.19907 | -55.97718 | 29 ft | 0 kts | 8° |
| 2026-05-04 13:03 | -52.19913 | -55.97719 | 53 ft | 415 kts | 8° |
| 2026-05-04 13:03 | -52.19935 | -55.97736 | 42 ft | 0 kts | 8° |
| 2026-05-04 13:03 | -52.19879 | -55.97724 | 738 ft | 38 kts | 12° |
| 2026-05-04 13:04 | -52.19927 | -55.97741 | 134 ft | 71 kts | 7° |
| 2026-05-04 13:04 | -52.19494 | -55.97746 | 10 ft | 24 kts | 355° |
| 2026-05-04 13:04 | -52.19407 | -55.97758 | 10 ft | 11 kts | 355° |
| 2026-05-04 13:04 | -52.19328 | -55.97768 | 10 ft | 11 kts | 355° |
| 2026-05-04 13:05 | -52.19250 | -55.97780 | 10 ft | 11 kts | 355° |
| 2026-05-04 13:05 | -52.19313 | -55.97770 | 12 ft | 384 kts | 355° |
| 2026-05-04 13:05 | -52.19884 | -55.97740 | 10 ft | 1 kts | 355° |
| 2026-05-04 13:05 | -52.19825 | -55.97747 | 11 ft | 11 kts | 355° |
| 2026-05-04 13:06 | -52.19745 | -55.97758 | 11 ft | 11 kts | 355° |
| 2026-05-04 13:06 | -52.19666 | -55.97769 | 10 ft | 11 kts | 355° |
| 2026-05-04 13:06 | -52.19587 | -55.97780 | 10 ft | 11 kts | 355° |
| 2026-05-04 13:06 | -52.19508 | -55.97791 | 10 ft | 11 kts | 355° |
| 2026-05-04 13:07 | -52.19430 | -55.97803 | 10 ft | 11 kts | 355° |
| 2026-05-04 13:07 | -52.19350 | -55.97815 | 10 ft | 11 kts | 355° |
| 2026-05-04 13:07 | -52.19272 | -55.97827 | 10 ft | 11 kts | 354° |
| 2026-05-04 13:07 | -52.19193 | -55.97839 | 10 ft | 11 kts | 354° |
| 2026-05-04 13:08 | -52.19114 | -55.97851 | 10 ft | 11 kts | 354° |
| 2026-05-04 13:08 | -52.19035 | -55.97863 | 10 ft | 11 kts | 354° |
| 2026-05-04 13:08 | -52.18956 | -55.97876 | 10 ft | 11 kts | 354° |